El Campo, TX (77437)

4:51 PM CST on February 07, 2016 (GMT -0600)
FM1160 | | Change Station
CLOSE
Current Station
Personal Weather Station
Location: Louise, TX
Elevation: 105 ft
Nearby Weather Stations
Active Advisory: Fire Weather Watch

Elev 105 ft 29.20 °N, 96.40 °W | Updated 8 minutes ago

Clear
Clear
67.9 °F
Feels Like 67.9 °F
N
7.9
Wind Variable Wind from SW
Gusts 10.7 mph

Today
High -- | Low -- °F
--% Chance of Precip.
Yesterday
High -- | Low -- °F
Precip. -- in
Pressure 30.15 in
Visibility 10.0 miles
Clouds Clear
Dew Point 39 °F
Humidity 35%
Rainfall 0.00 in
Snow Depth Not available.
7:10 AM 6:08 PM
Waning Crescent, 1% visible
METAR KARM 072235Z AUTO 18010KT 10SM CLR 19/05 A3015 RMK AO2 T01860049
Pressure 30.15 in
Visibility 10.0 miles
Clouds Clear
Dew Point 39 °F
Humidity 35%
Rainfall 0.00 in
Snow Depth Not available.
7:10 AM 6:08 PM
Waning Crescent, 1% visible
METAR KARM 072235Z AUTO 18010KT 10SM CLR 19/05 A3015 RMK AO2 T01860049

10-Day Weather Forecast

Almanac

Astronomy

Feb. 07, 2016 Rise Set
Actual Time
Civil Twilight
Nautical Twilight
Astronomical Twilight
Moon
Length of Visible Light
Length of Day
Tomorrow will be .
, % of the Moon is Illuminated

Today's Extremes

State Highs State Lows

Community

WunderPhotos

Upload Photos

1,891,323 photos uploaded!

WunderBlog® & News

Nearby

Air Quality

  Air Quality AQ Index Pollutant
Not available.

Snow Depth

Station Depth Elevation

Earthquake Activity

City Distance Mag. Time & Date
Minimum magnitude displayed is 2.5.

Coastal Water Temperatures

Place Temperature

Stations

Nearby Weather Stations

Station Location Temp. Windchill Dew Point Humidity Wind Precip. Elev Updated Type
                   

Watches & Warnings

Fire Weather Watch
Issued: 3:38 AM CST Feb. 7, 2016 – National Weather Service

... Fire Weather Watch in effect from Monday morning through
Monday evening for dry north winds for southeast Texas...

The National Weather Service in Houston/Galveston has issued a
Fire Weather Watch... which is in effect from Monday morning
through Monday evening.

* Affected counties... Houston... Trinity... Madison... Walker...
San Jacinto... Polk... Burleson... Brazos... Washington...
Grimes... Montgomery... Liberty... Colorado... Austin... Waller...
Harris... Chambers... Wharton... Fort Bend... Jackson...
Matagorda... Brazoria... Galveston.

* Wind... northerly winds around 15 mph with frequent gusts of 20
to 25 mph.

* Humidity... 18 to 25 percent.


* Highest threat... of the strongest winds and lowest humidities
should be for an area from Madisonville to Richmond to Freeport
and westward.

* Impacts... dangerous burning conditions with the potential for
fire starts with very rapid expansion of wildfires.

Precautionary/preparedness actions...

A Fire Weather Watch means that critical fire weather conditions
are forecast to occur. Listen for later forecasts and possible
red flag warnings.